Normans Crossing, Texas
Current Conditions -  °F | °C
As of 5:58 PM on Friday 28 Nov 2014 (Local Time) from KGRK Reporting Station
Clear Clear  
Wind Chill: 63°   Ceiling: Unl
Heat Index: 63°   Visibility: 10mi
Dew Point: 46°   Wind: 9mph
Humidity: 55%   Direction: 180°S
Pressure: 30.08"   Gusts: NA
Location:  30.5793°N, 97.5096°W
Report Text: KGRK 282358Z AUTO 18008KT 10SM CLR 17/08 A3008 RMK AO2 VIS 1 1/4 RWY33 SLP185 60000 T01710079 10213 20171 56007
Loading
Personal Weather Stations






























Interactive Weather Map New forecast layout! Learn more

10-Day Weather Forecast

Advertisements
Track Severe Weather on mobile